METAR Data

Data at: 1220 UTC 21 Oct 2018

METAR for:KJFK (New York/Kennedy Int, NY, US)
Text:KJFK 211151Z 32025G33KT 10SM FEW030 BKN070 OVC100 09/03 A2981 RMK AO2 PK WND 33033/1146 SLP093 60001 70001 T00890033 10106 20083 53047 VISNO W $
Temperature: 8.9°C ( 48°F)
Dewpoint: 3.3°C ( 38°F) [RH = 68%]
Pressure (altimeter):29.81 inches Hg (1009.6 mb) [Sea level pressure: 1009.3 mb]
Winds:from the NW (320 degrees) at 29 MPH (25 knots; 12.9 m/s) gusting to 38 MPH (33 knots; 17.0 m/s)
Visibility:10 or more sm (16+ km)
Ceiling:7000 feet AGL
Clouds: few clouds at 3000 feet AGL, broken clouds at 7000 feet AGL, overcast cloud deck at 10000 feet AGL
QC Flag:SOME DATA ABOVE MAY BE INACCURATE!!!"$" is an indication the sensor requires maintenance.